Wetterdaten: Woche 06.06.16 - 12.06.16 (KW23)
Datum Zeit Temp. I. Temp. A. Feuchte I. Feuchte A. Luftdruck Regen Wind Richtung Sonnenschein UV Solar Taupunkt Windchill Windben
06.06.2016 00:00 24,7 C 14,2 C 61 % 94 % 1017,5 hPa 0,0 l/m 1,1 km/h (0 Bft) N-NW 0,00 h 0,0 UV-I 0 W/m 13,2 C 14,2 C 2,8 km/h (1 Bft)
06.06.2016 01:00 24,6 C 13,2 C 62 % 95 % 1017,7 hPa 0,0 l/m 0,0 km/h (0 Bft) N 0,00 h 0,0 UV-I 0 W/m 12,4 C 13,2 C 0,0 km/h (0 Bft)
06.06.2016 02:00 24,6 C 12,4 C 62 % 96 % 1017,7 hPa 0,0 l/m 0,0 km/h (0 Bft) N 0,00 h 0,0 UV-I 0 W/m 11,7 C 12,4 C 0,0 km/h (0 Bft)
06.06.2016 03:00 24,6 C 11,5 C 62 % 96 % 1017,7 hPa 0,0 l/m 0,0 km/h (0 Bft) N 0,00 h 0,0 UV-I 0 W/m 11,0 C 11,5 C 0,0 km/h (0 Bft)
06.06.2016 04:00 24,6 C 10,9 C 62 % 97 % 1017,7 hPa 0,0 l/m 0,0 km/h (0 Bft) N 0,00 h 0,0 UV-I 0 W/m 10,4 C 10,9 C 0,0 km/h (0 Bft)
06.06.2016 05:00 24,4 C 10,4 C 62 % 97 % 1018,0 hPa 0,0 l/m 0,0 km/h (0 Bft) N 0,00 h 0,0 UV-I 11 W/m 9,9 C 10,4 C 0,0 km/h (0 Bft)
06.06.2016 06:00 24,4 C 11,0 C 62 % 97 % 1018,4 hPa 0,0 l/m 0,0 km/h (0 Bft) N 0,00 h 0,0 UV-I 27 W/m 10,5 C 11,0 C 0,0 km/h (0 Bft)
06.06.2016 07:00 24,5 C 13,4 C 62 % 94 % 1018,7 hPa 0,0 l/m 0,0 km/h (0 Bft) N 0,67 h 0,9 UV-I 200 W/m 12,4 C 13,4 C 0,0 km/h (0 Bft)
06.06.2016 08:00 24,7 C 17,4 C 61 % 85 % 1018,7 hPa 0,0 l/m 0,0 km/h (0 Bft) N 1,00 h 1,7 UV-I 442 W/m 14,9 C 17,4 C 0,0 km/h (0 Bft)
06.06.2016 09:00 24,8 C 20,6 C 61 % 72 % 1018,8 hPa 0,0 l/m 0,1 km/h (0 Bft) NW 1,00 h 2,9 UV-I 594 W/m 15,4 C 20,6 C 0,7 km/h (0 Bft)
06.06.2016 10:00 24,6 C 23,1 C 58 % 59 % 1018,8 hPa 0,0 l/m 0,5 km/h (0 Bft) O 1,00 h 4,3 UV-I 724 W/m 14,6 C 23,1 C 1,7 km/h (1 Bft)
06.06.2016 11:00 24,6 C 24,6 C 55 % 52 % 1018,7 hPa 0,0 l/m 0,8 km/h (0 Bft) N 1,00 h 5,5 UV-I 816 W/m 14,0 C 24,6 C 2,4 km/h (1 Bft)
06.06.2016 12:00 25,0 C 25,6 C 54 % 51 % 1018,6 hPa 0,0 l/m 1,4 km/h (1 Bft) N-NO 1,00 h 6,1 UV-I 905 W/m 14,5 C 25,6 C 3,8 km/h (1 Bft)
06.06.2016 13:00 25,0 C 25,5 C 54 % 48 % 1018,1 hPa 0,0 l/m 1,2 km/h (1 Bft) W-NW 1,00 h 4,8 UV-I 620 W/m 13,6 C 25,5 C 3,3 km/h (1 Bft)
06.06.2016 14:00 25,0 C 23,4 C 55 % 55 % 1018,2 hPa 0,0 l/m 4,7 km/h (1 Bft) N-NO 1,00 h 2,1 UV-I 227 W/m 13,8 C 23,1 C 9,5 km/h (2 Bft)
06.06.2016 15:00 25,0 C 23,5 C 55 % 53 % 1018,2 hPa 0,0 l/m 3,3 km/h (1 Bft) O-NO 1,00 h 4,7 UV-I 737 W/m 13,3 C 23,4 C 8,5 km/h (2 Bft)
06.06.2016 16:00 24,9 C 24,6 C 52 % 50 % 1018,1 hPa 0,0 l/m 2,6 km/h (1 Bft) N-NO 1,00 h 2,8 UV-I 473 W/m 13,3 C 24,5 C 6,9 km/h (2 Bft)
06.06.2016 17:00 24,8 C 22,2 C 52 % 57 % 1018,5 hPa 0,0 l/m 0,3 km/h (0 Bft) N 0,13 h 1,0 UV-I 125 W/m 13,2 C 22,2 C 1,1 km/h (0 Bft)
06.06.2016 18:00 24,8 C 21,9 C 55 % 63 % 1018,7 hPa 0,0 l/m 0,1 km/h (0 Bft) N-NW 0,25 h 0,8 UV-I 111 W/m 14,6 C 21,9 C 0,4 km/h (0 Bft)
06.06.2016 19:00 24,9 C 20,9 C 56 % 68 % 1018,8 hPa 0,0 l/m 0,3 km/h (0 Bft) N-NW 0,00 h 0,0 UV-I 50 W/m 14,7 C 20,9 C 0,7 km/h (0 Bft)
06.06.2016 20:00 24,9 C 20,0 C 56 % 72 % 1018,9 hPa 0,0 l/m 2,2 km/h (1 Bft) O-NO 0,00 h 0,0 UV-I 43 W/m 14,7 C 19,9 C 5,0 km/h (1 Bft)
06.06.2016 21:00 24,8 C 18,5 C 56 % 77 % 1019,4 hPa 0,0 l/m 0,3 km/h (0 Bft) N-NO 0,00 h 0,0 UV-I 7 W/m 14,3 C 18,5 C 1,2 km/h (1 Bft)
06.06.2016 22:00 24,4 C 16,9 C 55 % 82 % 1019,6 hPa 0,0 l/m 0,0 km/h (0 Bft) N 0,00 h 0,0 UV-I 0 W/m 13,7 C 16,9 C 0,0 km/h (0 Bft)
06.06.2016 23:00 24,5 C 15,8 C 56 % 85 % 1019,9 hPa 0,0 l/m 0,1 km/h (0 Bft) O-NO 0,00 h 0,0 UV-I 0 W/m 13,3 C 15,8 C 0,6 km/h (0 Bft)
07.06.2016 00:00 24,5 C 15,2 C 57 % 79 % 1020,3 hPa 0,0 l/m 0,1 km/h (0 Bft) O-NO 0,00 h 0,0 UV-I 0 W/m 11,6 C 15,2 C 0,4 km/h (0 Bft)
07.06.2016 01:00 24,4 C 14,2 C 57 % 79 % 1020,6 hPa 0,0 l/m 0,1 km/h (0 Bft) N-NO 0,00 h 0,0 UV-I 0 W/m 10,5 C 14,2 C 0,5 km/h (0 Bft)
07.06.2016 02:00 24,4 C 13,5 C 58 % 79 % 1020,8 hPa 0,0 l/m 0,0 km/h (0 Bft) O-NO 0,00 h 0,0 UV-I 0 W/m 10,0 C 13,5 C 0,4 km/h (0 Bft)
07.06.2016 03:00 24,4 C 13,3 C 58 % 79 % 1020,8 hPa 0,0 l/m 1,0 km/h (0 Bft) O-NO 0,00 h 0,0 UV-I 0 W/m 9,8 C 13,3 C 4,5 km/h (1 Bft)
07.06.2016 04:00 24,4 C 12,9 C 58 % 80 % 1020,7 hPa 0,0 l/m 0,7 km/h (0 Bft) O-NO 0,00 h 0,0 UV-I 0 W/m 9,6 C 12,9 C 3,6 km/h (1 Bft)
07.06.2016 05:00 24,3 C 12,7 C 59 % 80 % 1020,8 hPa 0,0 l/m 1,3 km/h (1 Bft) O-NO 0,00 h 0,0 UV-I 12 W/m 9,4 C 12,7 C 5,0 km/h (1 Bft)
07.06.2016 06:00 24,3 C 13,3 C 59 % 78 % 1021,1 hPa 0,0 l/m 3,1 km/h (1 Bft) O-NO 0,00 h 0,0 UV-I 25 W/m 9,5 C 13,2 C 8,2 km/h (2 Bft)
07.06.2016 07:00 24,6 C 15,3 C 59 % 75 % 1021,2 hPa 0,0 l/m 0,5 km/h (0 Bft) O-NO 0,65 h 1,0 UV-I 231 W/m 10,8 C 15,3 C 1,7 km/h (1 Bft)
07.06.2016 08:00 24,6 C 17,8 C 57 % 70 % 1021,5 hPa 0,0 l/m 1,3 km/h (1 Bft) NO 1,00 h 1,7 UV-I 461 W/m 12,4 C 17,8 C 3,9 km/h (1 Bft)
07.06.2016 09:00 24,7 C 19,8 C 57 % 67 % 1021,4 hPa 0,0 l/m 2,3 km/h (1 Bft) O-NO 1,00 h 2,9 UV-I 609 W/m 13,4 C 19,8 C 6,1 km/h (2 Bft)
07.06.2016 10:00 24,6 C 21,4 C 53 % 61 % 1021,4 hPa 0,0 l/m 2,2 km/h (1 Bft) O-NO 1,00 h 4,3 UV-I 724 W/m 13,6 C 21,4 C 6,0 km/h (2 Bft)
07.06.2016 11:00 24,4 C 22,0 C 52 % 57 % 1021,4 hPa 0,0 l/m 2,7 km/h (1 Bft) SO 1,00 h 5,6 UV-I 812 W/m 13,1 C 21,9 C 6,1 km/h (2 Bft)
07.06.2016 12:00 24,7 C 22,8 C 52 % 55 % 1021,2 hPa 0,0 l/m 2,7 km/h (1 Bft) SO 1,00 h 6,4 UV-I 869 W/m 13,2 C 22,7 C 6,1 km/h (2 Bft)
07.06.2016 13:00 25,0 C 23,7 C 52 % 51 % 1020,9 hPa 0,0 l/m 3,8 km/h (1 Bft) SO 1,00 h 6,6 UV-I 907 W/m 12,9 C 23,5 C 6,7 km/h (2 Bft)
07.06.2016 14:00 24,9 C 24,4 C 53 % 48 % 1020,5 hPa 0,0 l/m 1,9 km/h (1 Bft) S-SO 1,00 h 5,8 UV-I 836 W/m 12,6 C 24,4 C 4,6 km/h (1 Bft)
07.06.2016 15:00 24,9 C 24,3 C 54 % 48 % 1020,1 hPa 0,0 l/m 1,7 km/h (1 Bft) N-NO 1,00 h 3,9 UV-I 584 W/m 12,6 C 24,3 C 4,2 km/h (1 Bft)
07.06.2016 16:00 25,0 C 24,0 C 51 % 47 % 1019,7 hPa 0,0 l/m 2,0 km/h (1 Bft) S-SO 0,90 h 3,0 UV-I 486 W/m 11,8 C 24,0 C 5,0 km/h (1 Bft)
07.06.2016 17:00 25,2 C 23,7 C 50 % 46 % 1018,9 hPa 0,0 l/m 2,3 km/h (1 Bft) S-SO 0,57 h 1,8 UV-I 289 W/m 11,3 C 23,7 C 5,2 km/h (1 Bft)
07.06.2016 18:00 24,9 C 23,0 C 49 % 47 % 1018,6 hPa 0,0 l/m 1,7 km/h (1 Bft) O 0,00 h 1,0 UV-I 51 W/m 11,0 C 23,0 C 4,4 km/h (1 Bft)
07.06.2016 19:00 24,8 C 22,7 C 50 % 46 % 1018,7 hPa 0,0 l/m 2,3 km/h (1 Bft) SO 0,00 h 0,0 UV-I 33 W/m 10,5 C 22,7 C 5,3 km/h (1 Bft)
07.06.2016 20:00 24,8 C 21,6 C 52 % 50 % 1018,8 hPa 0,0 l/m 0,3 km/h (0 Bft) O 0,00 h 0,0 UV-I 19 W/m 10,7 C 21,6 C 1,4 km/h (1 Bft)
07.06.2016 21:00 24,8 C 19,5 C 52 % 57 % 1019,2 hPa 0,0 l/m 0,1 km/h (0 Bft) O 0,00 h 0,0 UV-I 5 W/m 10,9 C 19,5 C 0,5 km/h (0 Bft)
07.06.2016 22:00 24,6 C 17,1 C 51 % 69 % 1019,5 hPa 0,0 l/m 0,0 km/h (0 Bft) N 0,00 h 0,0 UV-I 0 W/m 11,3 C 17,1 C 0,0 km/h (0 Bft)
07.06.2016 23:00 24,6 C 15,4 C 52 % 75 % 1019,6 hPa 0,0 l/m 0,0 km/h (0 Bft) N 0,00 h 0,0 UV-I 0 W/m 11,0 C 15,4 C 0,1 km/h (0 Bft)
08.06.2016 00:00 24,6 C 14,6 C 53 % 76 % 1019,5 hPa 0,0 l/m 0,0 km/h (0 Bft) N 0,00 h 0,0 UV-I 0 W/m 10,4 C 14,6 C 0,2 km/h (0 Bft)
08.06.2016 01:00 24,5 C 13,4 C 53 % 83 % 1019,4 hPa 0,0 l/m 0,0 km/h (0 Bft) N 0,00 h 0,0 UV-I 0 W/m 10,7 C 13,4 C 0,0 km/h (0 Bft)
08.06.2016 02:00 24,5 C 12,4 C 53 % 89 % 1018,8 hPa 0,0 l/m 0,0 km/h (0 Bft) N 0,00 h 0,0 UV-I 0 W/m 10,7 C 12,4 C 0,0 km/h (0 Bft)
08.06.2016 03:00 24,5 C 11,4 C 54 % 90 % 1018,4 hPa 0,0 l/m 0,0 km/h (0 Bft) N 0,00 h 0,0 UV-I 0 W/m 9,9 C 11,4 C 0,1 km/h (0 Bft)
08.06.2016 04:00 24,5 C 10,6 C 54 % 93 % 1018,2 hPa 0,0 l/m 0,0 km/h (0 Bft) N 0,00 h 0,0 UV-I 0 W/m 9,5 C 10,6 C 0,0 km/h (0 Bft)
08.06.2016 05:00 24,4 C 10,3 C 54 % 93 % 1018,3 hPa 0,0 l/m 0,0 km/h (0 Bft) N 0,00 h 0,0 UV-I 11 W/m 9,3 C 10,3 C 0,0 km/h (0 Bft)
08.06.2016 06:00 24,4 C 11,1 C 54 % 94 % 1018,4 hPa 0,0 l/m 0,0 km/h (0 Bft) N 0,00 h 0,0 UV-I 29 W/m 10,1 C 11,1 C 0,1 km/h (0 Bft)
08.06.2016 07:00 24,3 C 13,8 C 54 % 85 % 1018,3 hPa 0,0 l/m 0,0 km/h (0 Bft) N 0,67 h 0,9 UV-I 217 W/m 11,3 C 13,8 C 0,0 km/h (0 Bft)
08.06.2016 08:00 24,6 C 18,2 C 55 % 68 % 1017,7 hPa 0,0 l/m 0,4 km/h (0 Bft) S 1,00 h 1,7 UV-I 447 W/m 12,2 C 18,2 C 1,0 km/h (0 Bft)
08.06.2016 09:00 24,7 C 20,2 C 53 % 63 % 1017,5 hPa 0,0 l/m 4,5 km/h (1 Bft) S 1,00 h 2,7 UV-I 576 W/m 12,9 C 19,9 C 7,2 km/h (2 Bft)
08.06.2016 10:00 24,5 C 21,4 C 52 % 60 % 1017,3 hPa 0,0 l/m 5,1 km/h (1 Bft) S 1,00 h 4,0 UV-I 706 W/m 13,3 C 21,2 C 10,0 km/h (2 Bft)
08.06.2016 11:00 24,4 C 22,6 C 51 % 59 % 1016,9 hPa 0,0 l/m 4,3 km/h (1 Bft) S 1,00 h 5,1 UV-I 794 W/m 14,2 C 22,6 C 8,7 km/h (2 Bft)
08.06.2016 12:00 24,7 C 23,1 C 52 % 58 % 1016,3 hPa 0,0 l/m 3,5 km/h (1 Bft) W 0,83 h 3,9 UV-I 529 W/m 14,3 C 23,0 C 7,3 km/h (2 Bft)
08.06.2016 13:00 24,8 C 20,5 C 52 % 77 % 1015,8 hPa 1,6 l/m 1,4 km/h (1 Bft) W 0,00 h 0,9 UV-I 107 W/m 16,3 C 20,4 C 3,4 km/h (1 Bft)
08.06.2016 14:00 24,8 C 17,1 C 53 % 82 % 1015,7 hPa 3,6 l/m 4,7 km/h (1 Bft) W 0,00 h 1,0 UV-I 56 W/m 13,9 C 16,4 C 8,7 km/h (2 Bft)
08.06.2016 15:00 24,7 C 15,2 C 54 % 91 % 1015,8 hPa 0,8 l/m 0,9 km/h (0 Bft) NW 0,00 h 0,0 UV-I 25 W/m 13,7 C 15,1 C 3,3 km/h (1 Bft)
08.06.2016 16:00 24,7 C 15,0 C 54 % 93 % 1015,8 hPa 0,4 l/m 0,1 km/h (0 Bft) S-SO 0,10 h 0,8 UV-I 66 W/m 13,9 C 15,0 C 0,5 km/h (0 Bft)
08.06.2016 17:00 24,7 C 16,6 C 55 % 87 % 1015,4 hPa 0,0 l/m 0,2 km/h (0 Bft) SO 1,00 h 1,7 UV-I 354 W/m 14,4 C 16,6 C 0,6 km/h (0 Bft)
08.06.2016 18:00 24,8 C 17,4 C 55 % 84 % 1015,3 hPa 0,0 l/m 0,2 km/h (0 Bft) S-SO 0,57 h 0,9 UV-I 151 W/m 14,6 C 17,4 C 0,8 km/h (0 Bft)
08.06.2016 19:00 24,6 C 17,0 C 56 % 86 % 1015,2 hPa 0,0 l/m 0,0 km/h (0 Bft) N 0,00 h 0,5 UV-I 56 W/m 14,6 C 17,0 C 0,0 km/h (0 Bft)
08.06.2016 20:00 24,5 C 16,5 C 56 % 90 % 1015,0 hPa 0,0 l/m 0,0 km/h (0 Bft) N 0,00 h 0,0 UV-I 16 W/m 14,8 C 16,5 C 0,1 km/h (0 Bft)
08.06.2016 21:00 23,6 C 15,3 C 58 % 94 % 1014,9 hPa 0,0 l/m 0,0 km/h (0 Bft) N 0,00 h 0,0 UV-I 5 W/m 14,3 C 15,3 C 0,0 km/h (0 Bft)
08.06.2016 22:00 23,1 C 14,3 C 58 % 95 % 1015,1 hPa 0,0 l/m 0,0 km/h (0 Bft) N 0,00 h 0,0 UV-I 0 W/m 13,5 C 14,3 C 0,0 km/h (0 Bft)
08.06.2016 23:00 23,7 C 13,9 C 58 % 96 % 1015,4 hPa 0,0 l/m 0,0 km/h (0 Bft) N 0,00 h 0,0 UV-I 0 W/m 13,3 C 13,9 C 0,0 km/h (0 Bft)
09.06.2016 00:00 23,8 C 13,9 C 58 % 96 % 1015,3 hPa 0,0 l/m 0,0 km/h (0 Bft) N 0,00 h 0,0 UV-I 0 W/m 13,3 C 13,9 C 0,0 km/h (0 Bft)
09.06.2016 01:00 23,8 C 13,8 C 58 % 96 % 1015,1 hPa 0,0 l/m 0,0 km/h (0 Bft) N 0,00 h 0,0 UV-I 0 W/m 13,2 C 13,8 C 0,1 km/h (0 Bft)
09.06.2016 02:00 23,8 C 13,2 C 58 % 95 % 1014,9 hPa 0,0 l/m 0,0 km/h (0 Bft) N 0,00 h 0,0 UV-I 0 W/m 12,4 C 13,2 C 0,0 km/h (0 Bft)
09.06.2016 03:00 23,7 C 12,8 C 58 % 95 % 1015,0 hPa 0,0 l/m 0,0 km/h (0 Bft) NW 0,00 h 0,0 UV-I 0 W/m 12,0 C 12,8 C 0,3 km/h (0 Bft)
09.06.2016 04:00 23,7 C 12,0 C 57 % 95 % 1014,9 hPa 0,0 l/m 1,9 km/h (1 Bft) N 0,00 h 0,0 UV-I 0 W/m 11,2 C 12,0 C 5,7 km/h (1 Bft)
09.06.2016 05:00 23,6 C 11,5 C 57 % 95 % 1014,9 hPa 0,0 l/m 0,4 km/h (0 Bft) N 0,00 h 0,0 UV-I 18 W/m 10,8 C 11,5 C 1,9 km/h (1 Bft)
09.06.2016 06:00 23,6 C 12,1 C 57 % 95 % 1015,1 hPa 0,0 l/m 0,2 km/h (0 Bft) N-NW 0,00 h 0,0 UV-I 40 W/m 11,3 C 12,1 C 0,9 km/h (0 Bft)
09.06.2016 07:00 23,7 C 13,1 C 56 % 93 % 1015,1 hPa 0,0 l/m 2,4 km/h (1 Bft) N-NW 0,02 h 0,6 UV-I 101 W/m 12,0 C 12,9 C 5,1 km/h (1 Bft)
09.06.2016 08:00 23,9 C 14,1 C 56 % 88 % 1015,0 hPa 0,0 l/m 3,2 km/h (1 Bft) N-NW 0,62 h 1,3 UV-I 185 W/m 12,1 C 13,9 C 6,9 km/h (2 Bft)
09.06.2016 09:00 24,0 C 15,0 C 56 % 80 % 1014,9 hPa 0,0 l/m 4,7 km/h (1 Bft) N-NW 1,00 h 1,9 UV-I 228 W/m 11,7 C 14,6 C 7,8 km/h (2 Bft)
09.06.2016 10:00 24,0 C 16,5 C 54 % 73 % 1014,9 hPa 0,0 l/m 5,8 km/h (2 Bft) N 1,00 h 3,4 UV-I 550 W/m 11,7 C 16,0 C 11,3 km/h (2 Bft)
09.06.2016 11:00 23,7 C 17,1 C 53 % 69 % 1014,9 hPa 0,0 l/m 3,3 km/h (1 Bft) N 1,00 h 3,5 UV-I 480 W/m 11,5 C 17,0 C 7,0 km/h (2 Bft)
09.06.2016 12:00 24,1 C 17,9 C 52 % 66 % 1014,9 hPa 0,0 l/m 4,1 km/h (1 Bft) NW 1,00 h 3,9 UV-I 508 W/m 11,5 C 17,6 C 8,4 km/h (2 Bft)
09.06.2016 13:00 24,0 C 18,7 C 52 % 62 % 1014,7 hPa 0,0 l/m 4,2 km/h (1 Bft) N-NW 1,00 h 5,0 UV-I 641 W/m 11,1 C 18,4 C 8,5 km/h (2 Bft)
09.06.2016 14:00 24,1 C 19,6 C 51 % 58 % 1014,4 hPa 0,0 l/m 4,1 km/h (1 Bft) N 1,00 h 5,2 UV-I 699 W/m 11,1 C 19,2 C 9,2 km/h (2 Bft)
09.06.2016 15:00 23,9 C 19,1 C 50 % 58 % 1014,3 hPa 0,0 l/m 3,1 km/h (1 Bft) NW 1,00 h 3,4 UV-I 456 W/m 10,6 C 18,8 C 6,5 km/h (2 Bft)
09.06.2016 16:00 24,0 C 20,0 C 51 % 54 % 1014,1 hPa 0,0 l/m 5,4 km/h (1 Bft) W-NW 1,00 h 3,1 UV-I 550 W/m 10,4 C 19,7 C 11,8 km/h (2 Bft)
09.06.2016 17:00 24,1 C 19,4 C 51 % 54 % 1013,8 hPa 0,0 l/m 5,4 km/h (1 Bft) NW 0,88 h 1,9 UV-I 350 W/m 9,7 C 18,9 C 11,2 km/h (2 Bft)
09.06.2016 18:00 24,0 C 18,5 C 52 % 55 % 1013,8 hPa 0,0 l/m 2,9 km/h (1 Bft) N 0,00 h 0,9 UV-I 109 W/m 9,2 C 18,3 C 7,1 km/h (2 Bft)
09.06.2016 19:00 24,0 C 17,6 C 51 % 61 % 1013,8 hPa 0,0 l/m 5,1 km/h (1 Bft) N 0,00 h 0,6 UV-I 57 W/m 9,9 C 17,0 C 10,0 km/h (2 Bft)
09.06.2016 20:00 24,0 C 16,1 C 52 % 67 % 1013,8 hPa 0,0 l/m 1,9 km/h (1 Bft) N 0,00 h 0,0 UV-I 21 W/m 10,0 C 16,1 C 5,5 km/h (1 Bft)
09.06.2016 21:00 24,1 C 14,5 C 51 % 74 % 1014,0 hPa 0,0 l/m 0,0 km/h (0 Bft) N 0,00 h 0,0 UV-I 5 W/m 9,9 C 14,5 C 0,0 km/h (0 Bft)
09.06.2016 22:00 24,1 C 12,8 C 50 % 82 % 1014,2 hPa 0,0 l/m 0,0 km/h (0 Bft) N 0,00 h 0,0 UV-I 0 W/m 9,8 C 12,8 C 0,0 km/h (0 Bft)
09.06.2016 23:00 24,3 C 11,3 C 51 % 90 % 1014,3 hPa 0,0 l/m 0,0 km/h (0 Bft) N 0,00 h 0,0 UV-I 0 W/m 9,6 C 11,3 C 0,0 km/h (0 Bft)
10.06.2016 00:00 24,2 C 10,7 C 52 % 92 % 1014,5 hPa 0,0 l/m 0,0 km/h (0 Bft) N 0,00 h 0,0 UV-I 0 W/m 9,4 C 10,7 C 0,0 km/h (0 Bft)
10.06.2016 01:00 24,1 C 10,7 C 52 % 93 % 1014,2 hPa 0,0 l/m 0,0 km/h (0 Bft) N 0,00 h 0,0 UV-I 0 W/m 9,7 C 10,7 C 0,0 km/h (0 Bft)
10.06.2016 02:00 24,0 C 11,0 C 52 % 93 % 1013,8 hPa 0,0 l/m 0,0 km/h (0 Bft) N 0,00 h 0,0 UV-I 0 W/m 9,9 C 11,0 C 0,0 km/h (0 Bft)
10.06.2016 03:00 24,0 C 10,8 C 53 % 93 % 1013,2 hPa 0,0 l/m 0,0 km/h (0 Bft) N 0,00 h 0,0 UV-I 0 W/m 9,7 C 10,8 C 0,0 km/h (0 Bft)
10.06.2016 04:00 24,1 C 10,3 C 54 % 94 % 1012,8 hPa 0,0 l/m 0,0 km/h (0 Bft) N 0,00 h 0,0 UV-I 0 W/m 9,3 C 10,3 C 0,0 km/h (0 Bft)
10.06.2016 05:00 24,1 C 10,0 C 55 % 95 % 1012,9 hPa 0,0 l/m 0,0 km/h (0 Bft) N 0,00 h 0,0 UV-I 13 W/m 9,2 C 10,0 C 0,0 km/h (0 Bft)
10.06.2016 06:00 24,1 C 10,6 C 55 % 96 % 1012,8 hPa 0,0 l/m 0,0 km/h (0 Bft) N 0,00 h 0,0 UV-I 46 W/m 9,9 C 10,6 C 0,0 km/h (0 Bft)
10.06.2016 07:00 24,1 C 12,2 C 55 % 91 % 1012,6 hPa 0,0 l/m 0,0 km/h (0 Bft) N 0,52 h 0,8 UV-I 197 W/m 10,9 C 12,2 C 0,0 km/h (0 Bft)
10.06.2016 08:00 24,0 C 14,2 C 55 % 84 % 1012,4 hPa 0,0 l/m 0,1 km/h (0 Bft) W-SW 0,57 h 1,5 UV-I 297 W/m 11,6 C 14,2 C 0,4 km/h (0 Bft)
10.06.2016 09:00 23,9 C 16,4 C 52 % 74 % 1012,3 hPa 0,0 l/m 2,6 km/h (1 Bft) W-SW 1,00 h 3,1 UV-I 614 W/m 11,8 C 16,3 C 5,9 km/h (2 Bft)
10.06.2016 10:00 23,7 C 17,5 C 50 % 67 % 1012,1 hPa 0,0 l/m 3,9 km/h (1 Bft) W-SW 0,90 h 3,2 UV-I 485 W/m 11,3 C 17,4 C 8,8 km/h (2 Bft)
10.06.2016 11:00 23,8 C 17,5 C 50 % 64 % 1011,8 hPa 0,0 l/m 3,6 km/h (1 Bft) W-NW 0,92 h 3,5 UV-I 375 W/m 10,5 C 17,3 C 7,2 km/h (2 Bft)
10.06.2016 12:00 23,8 C 19,5 C 49 % 56 % 1011,5 hPa 0,0 l/m 3,3 km/h (1 Bft) W-NW 1,00 h 6,2 UV-I 812 W/m 10,5 C 19,3 C 6,5 km/h (2 Bft)
10.06.2016 13:00 24,0 C 20,8 C 49 % 51 % 1011,1 hPa 0,0 l/m 3,6 km/h (1 Bft) W 1,00 h 6,4 UV-I 849 W/m 10,3 C 20,7 C 7,8 km/h (2 Bft)
10.06.2016 14:00 24,2 C 20,6 C 49 % 49 % 1010,8 hPa 0,0 l/m 4,5 km/h (1 Bft) W 1,00 h 4,4 UV-I 599 W/m 9,5 C 20,5 C 9,2 km/h (2 Bft)
10.06.2016 15:00 24,2 C 20,5 C 48 % 51 % 1010,4 hPa 0,0 l/m 4,0 km/h (1 Bft) W-NW 0,95 h 3,6 UV-I 462 W/m 9,9 C 20,4 C 8,2 km/h (2 Bft)
10.06.2016 16:00 24,2 C 21,1 C 46 % 50 % 1010,1 hPa 0,0 l/m 3,2 km/h (1 Bft) W-SW 0,90 h 3,3 UV-I 532 W/m 10,4 C 21,1 C 7,6 km/h (2 Bft)
10.06.2016 17:00 24,4 C 21,0 C 45 % 50 % 1009,7 hPa 0,0 l/m 4,5 km/h (1 Bft) W 0,85 h 2,0 UV-I 369 W/m 10,0 C 20,8 C 9,0 km/h (2 Bft)
10.06.2016 18:00 24,4 C 20,2 C 45 % 50 % 1009,5 hPa 0,0 l/m 3,5 km/h (1 Bft) W-NW 0,00 h 1,0 UV-I 93 W/m 9,6 C 20,2 C 7,7 km/h (2 Bft)
10.06.2016 19:00 24,7 C 19,1 C 47 % 58 % 1009,5 hPa 0,0 l/m 0,8 km/h (0 Bft) NW 0,00 h 0,0 UV-I 43 W/m 10,7 C 19,1 C 2,5 km/h (1 Bft)
10.06.2016 20:00 24,4 C 18,4 C 47 % 63 % 1009,5 hPa 0,0 l/m 0,8 km/h (0 Bft) N 0,00 h 0,0 UV-I 29 W/m 11,2 C 18,4 C 2,5 km/h (1 Bft)
10.06.2016 21:00 24,7 C 17,6 C 49 % 65 % 1009,8 hPa 0,0 l/m 0,0 km/h (0 Bft) N 0,00 h 0,0 UV-I 7 W/m 10,9 C 17,6 C 0,0 km/h (0 Bft)
10.06.2016 22:00 24,7 C 15,9 C 49 % 74 % 1009,9 hPa 0,0 l/m 0,0 km/h (0 Bft) N 0,00 h 0,0 UV-I 0 W/m 11,3 C 15,9 C 0,0 km/h (0 Bft)
10.06.2016 23:00 24,4 C 13,7 C 50 % 85 % 1010,1 hPa 0,0 l/m 0,0 km/h (0 Bft) N 0,00 h 0,0 UV-I 0 W/m 11,2 C 13,7 C 0,0 km/h (0 Bft)
11.06.2016 00:00 24,3 C 12,9 C 51 % 87 % 1010,0 hPa 0,0 l/m 0,0 km/h (0 Bft) N 0,00 h 0,0 UV-I 0 W/m 10,8 C 12,9 C 0,0 km/h (0 Bft)
11.06.2016 01:00 24,2 C 12,2 C 51 % 90 % 1010,0 hPa 0,0 l/m 0,0 km/h (0 Bft) N 0,00 h 0,0 UV-I 0 W/m 10,6 C 12,2 C 0,0 km/h (0 Bft)
11.06.2016 02:00 24,2 C 11,6 C 51 % 90 % 1009,8 hPa 0,0 l/m 0,0 km/h (0 Bft) N 0,00 h 0,0 UV-I 0 W/m 10,0 C 11,6 C 0,0 km/h (0 Bft)
11.06.2016 03:00 24,1 C 11,1 C 52 % 90 % 1009,5 hPa 0,0 l/m 0,0 km/h (0 Bft) N 0,00 h 0,0 UV-I 0 W/m 9,5 C 11,1 C 0,0 km/h (0 Bft)
11.06.2016 04:00 24,1 C 10,8 C 52 % 90 % 1009,4 hPa 0,0 l/m 0,0 km/h (0 Bft) N 0,00 h 0,0 UV-I 0 W/m 9,2 C 10,8 C 0,0 km/h (0 Bft)
11.06.2016 05:00 24,1 C 11,0 C 52 % 90 % 1009,4 hPa 0,0 l/m 0,0 km/h (0 Bft) N 0,00 h 0,0 UV-I 11 W/m 9,4 C 11,0 C 0,0 km/h (0 Bft)
11.06.2016 06:00 24,2 C 11,5 C 52 % 88 % 1009,4 hPa 0,0 l/m 0,0 km/h (0 Bft) N 0,00 h 0,0 UV-I 40 W/m 9,5 C 11,5 C 0,0 km/h (0 Bft)
11.06.2016 07:00 24,3 C 12,7 C 53 % 85 % 1009,6 hPa 0,0 l/m 0,0 km/h (0 Bft) N 0,38 h 0,7 UV-I 128 W/m 10,2 C 12,7 C 0,1 km/h (0 Bft)
11.06.2016 08:00 24,2 C 14,6 C 53 % 78 % 1009,6 hPa 0,0 l/m 0,5 km/h (0 Bft) N 0,92 h 1,1 UV-I 191 W/m 10,9 C 14,6 C 1,2 km/h (1 Bft)
11.06.2016 09:00 24,4 C 16,4 C 53 % 72 % 1009,8 hPa 0,0 l/m 2,6 km/h (1 Bft) N 1,00 h 1,9 UV-I 278 W/m 11,3 C 16,4 C 4,3 km/h (1 Bft)
11.06.2016 10:00 24,5 C 18,1 C 53 % 65 % 1010,0 hPa 0,0 l/m 4,2 km/h (1 Bft) N 1,00 h 2,9 UV-I 428 W/m 11,5 C 18,0 C 7,4 km/h (2 Bft)
11.06.2016 11:00 24,7 C 19,0 C 52 % 59 % 1010,0 hPa 0,0 l/m 2,5 km/h (1 Bft) N 1,00 h 3,1 UV-I 413 W/m 10,7 C 19,0 C 4,6 km/h (1 Bft)
11.06.2016 12:00 24,6 C 18,7 C 51 % 62 % 1010,0 hPa 0,0 l/m 4,6 km/h (1 Bft) N 1,00 h 2,9 UV-I 334 W/m 11,4 C 18,6 C 8,7 km/h (2 Bft)
11.06.2016 13:00 24,8 C 18,4 C 52 % 64 % 1010,0 hPa 0,0 l/m 6,0 km/h (2 Bft) N-NO 1,00 h 2,7 UV-I 319 W/m 11,6 C 18,0 C 11,6 km/h (2 Bft)
11.06.2016 14:00 24,8 C 18,4 C 51 % 65 % 1009,8 hPa 0,0 l/m 7,8 km/h (2 Bft) N-NO 1,00 h 2,9 UV-I 326 W/m 11,7 C 17,3 C 12,8 km/h (3 Bft)
11.06.2016 15:00 24,5 C 18,5 C 51 % 63 % 1009,6 hPa 0,0 l/m 1,1 km/h (1 Bft) O-NO 1,00 h 1,9 UV-I 230 W/m 11,4 C 18,5 C 3,1 km/h (1 Bft)
11.06.2016 16:00 24,3 C 18,5 C 51 % 62 % 1009,5 hPa 0,0 l/m 1,0 km/h (0 Bft) O-NO 0,58 h 1,2 UV-I 149 W/m 11,1 C 18,5 C 3,0 km/h (1 Bft)
11.06.2016 17:00 24,2 C 17,9 C 50 % 61 % 1009,6 hPa 0,0 l/m 2,6 km/h (1 Bft) SO 0,00 h 0,7 UV-I 70 W/m 10,4 C 17,9 C 5,6 km/h (1 Bft)
11.06.2016 18:00 24,2 C 16,9 C 50 % 69 % 1009,7 hPa 0,0 l/m 0,8 km/h (0 Bft) S 0,00 h 0,0 UV-I 34 W/m 11,2 C 16,9 C 1,9 km/h (1 Bft)
11.06.2016 19:00 24,4 C 15,9 C 52 % 78 % 1009,9 hPa 0,0 l/m 0,0 km/h (0 Bft) N 0,00 h 0,0 UV-I 19 W/m 12,1 C 15,9 C 0,0 km/h (0 Bft)
11.06.2016 20:00 24,2 C 15,7 C 51 % 77 % 1009,9 hPa 0,0 l/m 0,0 km/h (0 Bft) N 0,00 h 0,0 UV-I 10 W/m 11,6 C 15,7 C 0,0 km/h (0 Bft)
11.06.2016 21:00 24,6 C 15,3 C 52 % 78 % 1010,1 hPa 0,0 l/m 0,0 km/h (0 Bft) N 0,00 h 0,0 UV-I 0 W/m 11,5 C 15,3 C 0,0 km/h (0 Bft)
11.06.2016 22:00 24,6 C 14,8 C 52 % 81 % 1010,4 hPa 0,0 l/m 0,0 km/h (0 Bft) SO 0,00 h 0,0 UV-I 0 W/m 11,6 C 14,8 C 0,2 km/h (0 Bft)
11.06.2016 23:00 24,4 C 14,4 C 53 % 84 % 1010,5 hPa 0,0 l/m 0,0 km/h (0 Bft) N 0,00 h 0,0 UV-I 0 W/m 11,6 C 14,4 C 0,1 km/h (0 Bft)
12.06.2016 00:00 24,2 C 14,0 C 53 % 85 % 1010,4 hPa 0,0 l/m 0,0 km/h (0 Bft) N 0,00 h 0,0 UV-I 0 W/m 11,6 C 14,0 C 0,0 km/h (0 Bft)
12.06.2016 01:00 24,1 C 13,7 C 54 % 88 % 1010,4 hPa 0,0 l/m 0,0 km/h (0 Bft) N 0,00 h 0,0 UV-I 0 W/m 11,7 C 13,7 C 0,0 km/h (0 Bft)
12.06.2016 02:00 24,1 C 13,4 C 54 % 90 % 1010,2 hPa 0,0 l/m 0,0 km/h (0 Bft) N 0,00 h 0,0 UV-I 0 W/m 11,7 C 13,4 C 0,0 km/h (0 Bft)
12.06.2016 03:00 24,1 C 13,1 C 55 % 91 % 1009,8 hPa 0,0 l/m 0,0 km/h (0 Bft) N 0,00 h 0,0 UV-I 0 W/m 11,7 C 13,1 C 0,0 km/h (0 Bft)
12.06.2016 04:00 24,0 C 12,7 C 55 % 93 % 1009,4 hPa 0,0 l/m 0,0 km/h (0 Bft) N 0,00 h 0,0 UV-I 0 W/m 11,6 C 12,7 C 0,0 km/h (0 Bft)
12.06.2016 05:00 23,9 C 12,5 C 55 % 94 % 1009,5 hPa 0,0 l/m 0,0 km/h (0 Bft) N 0,00 h 0,0 UV-I 7 W/m 11,6 C 12,5 C 0,0 km/h (0 Bft)
12.06.2016 06:00 23,9 C 13,0 C 56 % 94 % 1009,6 hPa 0,0 l/m 0,0 km/h (0 Bft) N 0,00 h 0,0 UV-I 22 W/m 12,0 C 13,0 C 0,0 km/h (0 Bft)
12.06.2016 07:00 23,9 C 13,6 C 56 % 92 % 1009,5 hPa 0,0 l/m 0,2 km/h (0 Bft) S 0,00 h 0,5 UV-I 54 W/m 12,4 C 13,6 C 0,8 km/h (0 Bft)
12.06.2016 08:00 24,2 C 14,4 C 56 % 92 % 1009,3 hPa 0,0 l/m 1,3 km/h (1 Bft) S 0,00 h 0,7 UV-I 110 W/m 13,2 C 14,4 C 3,4 km/h (1 Bft)
12.06.2016 09:00 24,4 C 15,5 C 56 % 87 % 1009,0 hPa 0,0 l/m 4,8 km/h (1 Bft) S-SO 0,97 h 1,7 UV-I 241 W/m 13,3 C 15,3 C 8,1 km/h (2 Bft)
12.06.2016 10:00 24,4 C 16,6 C 57 % 82 % 1008,5 hPa 0,0 l/m 4,6 km/h (1 Bft) SW 1,00 h 2,7 UV-I 378 W/m 13,6 C 16,5 C 8,0 km/h (2 Bft)
12.06.2016 11:00 24,4 C 18,4 C 56 % 73 % 1008,0 hPa 0,0 l/m 1,8 km/h (1 Bft) SW 1,00 h 3,6 UV-I 486 W/m 13,4 C 18,4 C 4,8 km/h (1 Bft)
12.06.2016 12:00 24,3 C 19,9 C 55 % 65 % 1007,3 hPa 0,0 l/m 2,7 km/h (1 Bft) S-SO 0,97 h 4,8 UV-I 681 W/m 13,1 C 19,8 C 5,8 km/h (2 Bft)
12.06.2016 13:00 24,5 C 17,8 C 54 % 77 % 1006,9 hPa 0,2 l/m 5,2 km/h (1 Bft) W 0,47 h 1,9 UV-I 208 W/m 13,6 C 17,5 C 9,9 km/h (2 Bft)
12.06.2016 14:00 24,4 C 18,8 C 55 % 76 % 1006,5 hPa 0,2 l/m 2,0 km/h (1 Bft) S 1,00 h 4,2 UV-I 520 W/m 14,5 C 18,8 C 4,7 km/h (1 Bft)
12.06.2016 15:00 24,0 C 17,1 C 54 % 82 % 1006,4 hPa 0,6 l/m 1,7 km/h (1 Bft) W-SW 0,70 h 1,6 UV-I 203 W/m 14,1 C 17,1 C 3,9 km/h (1 Bft)
12.06.2016 16:00 24,0 C 16,4 C 55 % 87 % 1006,2 hPa 0,2 l/m 4,0 km/h (1 Bft) S 0,50 h 1,2 UV-I 189 W/m 14,2 C 16,2 C 7,5 km/h (2 Bft)
12.06.2016 17:00 23,8 C 16,9 C 56 % 84 % 1006,0 hPa 0,0 l/m 3,0 km/h (1 Bft) S 0,62 h 1,3 UV-I 192 W/m 14,3 C 16,9 C 7,3 km/h (2 Bft)
12.06.2016 18:00 24,2 C 15,7 C 56 % 91 % 1005,6 hPa 0,4 l/m 0,9 km/h (0 Bft) S-SO 0,00 h 0,5 UV-I 81 W/m 14,1 C 15,7 C 3,3 km/h (1 Bft)
12.06.2016 19:00 24,4 C 15,2 C 56 % 92 % 1005,5 hPa 0,0 l/m 1,7 km/h (1 Bft) S 0,00 h 0,0 UV-I 53 W/m 13,9 C 15,2 C 4,4 km/h (1 Bft)
12.06.2016 20:00 24,4 C 14,9 C 57 % 93 % 1005,1 hPa 0,0 l/m 1,0 km/h (0 Bft) S 0,00 h 0,0 UV-I 23 W/m 13,7 C 14,9 C 3,2 km/h (1 Bft)
12.06.2016 21:00 24,6 C 14,5 C 56 % 93 % 1005,3 hPa 0,0 l/m 1,4 km/h (1 Bft) S 0,00 h 0,0 UV-I 0 W/m 13,4 C 14,5 C 4,6 km/h (1 Bft)
12.06.2016 22:00 24,3 C 14,3 C 56 % 93 % 1005,4 hPa 0,0 l/m 0,6 km/h (0 Bft) S-SW 0,00 h 0,0 UV-I 0 W/m 13,2 C 14,3 C 2,9 km/h (1 Bft)
12.06.2016 23:00 24,2 C 14,2 C 57 % 95 % 1005,0 hPa 1,4 l/m 1,2 km/h (1 Bft) S-SW 0,00 h 0,0 UV-I 0 W/m 13,3 C 14,2 C 4,1 km/h (1 Bft)
Min-Datum _ 08.06.16 10.06.16 10.06.16 06.06.16 12.06.16 - 06.06.16 - - - - 09.06.16 10.06.16 06.06.16
_ Min-Zeit 22:32 05:30 17:39 16:09 23:41 - 00:00 - - - - 17:49 05:30 00:00
Minimum _ 22,9 C 9,8 C 44 % 38 % 1004,9 hPa - 0,0 km/h (0 Bft) - - - - 8,4 C 9,8 C 0,0 km/h (0 Bft)
Max-Datum _ 07.06.16 06.06.16 06.06.16 06.06.16 07.06.16 08.06.16 08.06.16 - 06.06.16 10.06.16 12.06.16 08.06.16 06.06.16 08.06.16
_ Max-Zeit 17:23 13:17 00:58 03:45 08:39 14:20 14:15 - 11:29 12:18 14:03 13:45 13:17 15:03
Maximum _ 25,3 C 26,8 C 62 % 97 % 1021,6 hPa 3,6 l/m 29,0 km/h
W (5 Bft)
- 0,03 h 7,7 UV-I 1222 W/m 17,8 C 26,8 C 45,1 km/h
NW (6 Bft)
Durchschnitt _ 24,4 C 16,4 C 54 % 76 % 1014,2 hPa #9,4 l/m 1,5 km/h (1 Bft) N #62:33 h 2,7 UV-I 294 W/m 11,8 C 16,4 C 3,3 km/h (1 Bft)